Time;durP1;ratioP1;P1;durP2;ratioP2;P2;SDS_P1;SDS_P2;PMS_P1;PMS_P2;Temp;Humidity;BMP_temperature;BMP_pressure;BME280_temperature;BME280_humidity;BME280_pressure;Samples;Min_cycle;Max_cycle;Signal;HPM_P1;HPM_P2
2022/03/10 00:02:23;;;;;;;;;;;18.00;99.90;;;;;;5042869;28;19948;-64
2022/03/10 00:04:51;;;;;;;;;;;18.10;99.90;;;;;;5033468;28;19936;-65
2022/03/10 00:07:18;;;;;;;;;;;18.10;99.90;;;;;;5049203;28;19999;-66
2022/03/10 00:09:45;;;;;;;;;;;18.00;99.90;;;;;;5044657;28;19936;-61
2022/03/10 00:12:14;;;;;;;;;;;18.00;99.90;;;;;;5040719;28;19941;-65
2022/03/10 00:14:41;;;;;;;;;;;18.00;99.90;;;;;;5047134;28;19933;-66
2022/03/10 00:17:08;;;;;;;;;;;18.00;99.90;;;;;;5031114;28;19929;-65
2022/03/10 00:19:35;;;;;;;;;;;18.00;99.90;;;;;;5041609;28;19959;-64
2022/03/10 00:22:02;;;;;;;;;;;18.00;99.90;;;;;;5038182;28;19924;-65
2022/03/10 00:24:30;;;;;;;;;;;17.90;99.90;;;;;;5040375;28;20008;-66
2022/03/10 00:26:57;;;;;;;;;;;17.90;99.90;;;;;;5047611;28;20331;-64
2022/03/10 00:29:24;;;;;;;;;;;17.90;99.90;;;;;;5042393;28;19976;-65
2022/03/10 00:31:52;;;;;;;;;;;17.90;99.90;;;;;;5037710;28;19940;-62
2022/03/10 00:34:19;;;;;;;;;;;17.90;99.90;;;;;;5076182;28;19955;-63
2022/03/10 00:36:46;;;;;;;;;;;17.90;99.90;;;;;;5046800;28;20027;-65
2022/03/10 00:39:14;;;;;;;;;;;17.90;99.90;;;;;;5040938;28;19929;-64
2022/03/10 00:41:41;;;;;;;;;;;17.90;99.90;;;;;;5046228;28;19951;-65
2022/03/10 00:44:08;;;;;;;;;;;17.90;99.90;;;;;;5046912;28;19932;-64
2022/03/10 00:46:35;;;;;;;;;;;17.90;99.90;;;;;;5040570;28;19929;-65
2022/03/10 00:49:02;;;;;;;;;;;17.80;99.90;;;;;;5039502;28;19931;-64
2022/03/10 00:51:29;;;;;;;;;;;17.80;99.90;;;;;;5049492;28;19931;-63
2022/03/10 00:53:56;;;;;;;;;;;17.90;99.90;;;;;;5044954;28;19925;-64
2022/03/10 00:56:23;;;;;;;;;;;17.80;99.90;;;;;;5035978;28;19925;-64
2022/03/10 00:58:50;;;;;;;;;;;17.80;99.90;;;;;;5037266;28;19929;-64
2022/03/10 01:01:17;;;;;;;;;;;17.80;99.90;;;;;;5033872;28;20039;-65
2022/03/10 01:03:45;;;;;;;;;;;17.80;99.90;;;;;;5043528;28;19935;-65
2022/03/10 01:06:12;;;;;;;;;;;17.80;99.90;;;;;;5047690;28;19929;-61
2022/03/10 01:08:39;;;;;;;;;;;17.80;99.90;;;;;;5053593;28;19940;-61
2022/03/10 01:11:06;;;;;;;;;;;17.80;99.90;;;;;;5043090;28;19929;-63
2022/03/10 01:13:33;;;;;;;;;;;17.80;99.90;;;;;;5034202;28;19929;-62
2022/03/10 01:16:01;;;;;;;;;;;17.80;99.90;;;;;;5049518;28;19943;-64
2022/03/10 01:18:28;;;;;;;;;;;17.80;99.90;;;;;;5051701;28;19936;-63
2022/03/10 01:20:55;;;;;;;;;;;17.80;99.90;;;;;;5057482;28;19963;-63
2022/03/10 01:23:23;;;;;;;;;;;17.80;99.90;;;;;;5035692;28;19991;-63
2022/03/10 01:25:50;;;;;;;;;;;17.70;99.90;;;;;;5042121;28;20456;-64
2022/03/10 01:28:17;;;;;;;;;;;17.70;99.90;;;;;;5033035;28;19932;-64
2022/03/10 01:30:45;;;;;;;;;;;17.70;99.90;;;;;;5046555;28;20430;-63
2022/03/10 01:33:12;;;;;;;;;;;17.70;99.90;;;;;;5033794;28;20504;-63
2022/03/10 01:35:39;;;;;;;;;;;17.70;99.90;;;;;;5044058;28;19924;-63
2022/03/10 01:38:06;;;;;;;;;;;17.70;99.90;;;;;;5041248;28;20455;-61
2022/03/10 01:40:33;;;;;;;;;;;17.70;99.90;;;;;;5034827;28;19929;-63
2022/03/10 01:43:01;;;;;;;;;;;17.70;99.90;;;;;;5029765;28;19929;-62
2022/03/10 01:45:28;;;;;;;;;;;17.70;99.90;;;;;;5039927;28;19929;-62
2022/03/10 01:47:55;;;;;;;;;;;17.60;99.90;;;;;;5040278;28;19943;-67
2022/03/10 01:50:22;;;;;;;;;;;17.60;99.90;;;;;;5039781;28;19951;-64
2022/03/10 01:52:51;;;;;;;;;;;17.60;99.90;;;;;;5031438;28;19928;-64
2022/03/10 01:55:19;;;;;;;;;;;17.60;99.90;;;;;;5040100;28;19936;-62
2022/03/10 01:57:46;;;;;;;;;;;17.60;99.90;;;;;;4970114;28;1736200;-64
2022/03/10 02:00:14;;;;;;;;;;;17.70;99.90;;;;;;5044984;28;19929;-64
2022/03/10 02:02:42;;;;;;;;;;;17.60;99.90;;;;;;5044106;28;20418;-63
2022/03/10 02:05:09;;;;;;;;;;;17.60;99.90;;;;;;5046880;28;20009;-63
2022/03/10 02:10:28;;;;;;;;;;;17.60;99.90;;;;;;5035396;28;20392;-62
2022/03/10 02:12:55;;;;;;;;;;;17.60;99.90;;;;;;5040244;28;19932;-67
2022/03/10 02:18:09;;;;;;;;;;;17.50;99.90;;;;;;5045383;28;20741;-65
2022/03/10 02:20:37;;;;;;;;;;;17.50;99.90;;;;;;5044326;28;19936;-61
2022/03/10 02:23:05;;;;;;;;;;;17.50;99.90;;;;;;5031751;28;20293;-61
2022/03/10 02:25:33;;;;;;;;;;;17.50;99.90;;;;;;5043350;28;20309;-64
2022/03/10 02:28:00;;;;;;;;;;;17.60;99.90;;;;;;5029856;28;20583;-63
2022/03/10 02:30:30;;;;;;;;;;;17.60;99.90;;;;;;5047041;28;19970;-59
2022/03/10 02:32:58;;;;;;;;;;;17.60;99.90;;;;;;5033427;28;19929;-67
2022/03/10 02:35:25;;;;;;;;;;;17.60;99.90;;;;;;5033706;28;19929;-63
2022/03/10 02:37:53;;;;;;;;;;;17.60;99.90;;;;;;5043453;28;19940;-63
2022/03/10 02:40:20;;;;;;;;;;;17.60;99.90;;;;;;5042193;28;20024;-63
2022/03/10 02:42:47;;;;;;;;;;;17.60;99.90;;;;;;5042259;28;20297;-62
2022/03/10 02:45:14;;;;;;;;;;;17.50;99.90;;;;;;5043091;28;19936;-63
2022/03/10 02:47:41;;;;;;;;;;;17.50;99.90;;;;;;5041155;28;19932;-62
2022/03/10 02:50:09;;;;;;;;;;;17.50;99.90;;;;;;5043753;28;20404;-62
2022/03/10 02:52:37;;;;;;;;;;;17.50;99.90;;;;;;5039708;28;20019;-61
2022/03/10 02:55:05;;;;;;;;;;;17.60;99.90;;;;;;5029722;28;19929;-62
2022/03/10 02:57:32;;;;;;;;;;;17.60;99.90;;;;;;5038874;28;20383;-62
2022/03/10 03:00:00;;;;;;;;;;;17.60;99.90;;;;;;5034747;28;19945;-62
2022/03/10 03:02:28;;;;;;;;;;;17.60;99.90;;;;;;5037806;28;19935;-63
2022/03/10 03:04:55;;;;;;;;;;;17.60;99.90;;;;;;5036169;28;19939;-68
2022/03/10 03:07:24;;;;;;;;;;;17.60;99.90;;;;;;5039864;28;19929;-67
2022/03/10 03:09:52;;;;;;;;;;;17.70;99.90;;;;;;5042624;28;20683;-64
2022/03/10 03:12:19;;;;;;;;;;;17.70;99.90;;;;;;5039489;28;19928;-61
2022/03/10 03:14:46;;;;;;;;;;;17.70;99.90;;;;;;5042837;28;19952;-61
2022/03/10 03:17:13;;;;;;;;;;;17.70;99.90;;;;;;5037456;28;20042;-65
2022/03/10 03:19:40;;;;;;;;;;;17.70;99.90;;;;;;5037485;28;19933;-67
2022/03/10 03:22:08;;;;;;;;;;;17.70;99.90;;;;;;5036446;28;20292;-63
2022/03/10 03:24:35;;;;;;;;;;;17.70;99.90;;;;;;5044180;28;19983;-63
2022/03/10 03:27:02;;;;;;;;;;;17.70;99.90;;;;;;5031440;28;19925;-64
2022/03/10 03:29:29;;;;;;;;;;;17.60;99.90;;;;;;5033723;28;19925;-60
2022/03/10 03:31:57;;;;;;;;;;;17.60;99.90;;;;;;5036841;28;19925;-59
2022/03/10 03:34:24;;;;;;;;;;;17.60;99.90;;;;;;5034635;28;19940;-61
2022/03/10 03:36:51;;;;;;;;;;;17.60;99.90;;;;;;5045389;28;20393;-62
2022/03/10 03:39:18;;;;;;;;;;;17.50;99.90;;;;;;5040105;28;19925;-61
2022/03/10 03:41:45;;;;;;;;;;;17.50;99.90;;;;;;5033833;28;19940;-62
2022/03/10 03:44:13;;;;;;;;;;;17.50;99.90;;;;;;5043322;28;19933;-63
2022/03/10 03:46:41;;;;;;;;;;;17.50;99.90;;;;;;5033297;28;19936;-63
2022/03/10 03:49:10;;;;;;;;;;;17.40;99.90;;;;;;5034288;28;19929;-62
2022/03/10 03:51:37;;;;;;;;;;;17.40;99.90;;;;;;5045566;28;19929;-64
2022/03/10 03:54:05;;;;;;;;;;;17.40;99.90;;;;;;5033644;28;19928;-64
2022/03/10 03:56:34;;;;;;;;;;;17.40;99.90;;;;;;5030759;28;20411;-63
2022/03/10 03:59:01;;;;;;;;;;;17.40;99.90;;;;;;5047521;28;20000;-62
2022/03/10 04:01:28;;;;;;;;;;;17.40;99.90;;;;;;5047840;28;19961;-64
2022/03/10 04:03:55;;;;;;;;;;;17.40;99.90;;;;;;5041710;28;19949;-65
2022/03/10 04:06:23;;;;;;;;;;;17.40;99.90;;;;;;5042307;28;19935;-65
2022/03/10 04:08:50;;;;;;;;;;;17.40;99.90;;;;;;5039571;28;19933;-63
2022/03/10 04:11:17;;;;;;;;;;;17.30;99.90;;;;;;5046617;28;19925;-64
2022/03/10 04:13:44;;;;;;;;;;;17.40;99.90;;;;;;5033899;28;19933;-63
2022/03/10 04:16:11;;;;;;;;;;;17.30;99.90;;;;;;5061465;28;19925;-63
2022/03/10 04:18:39;;;;;;;;;;;17.30;99.90;;;;;;5039214;28;19925;-62
2022/03/10 04:21:06;;;;;;;;;;;17.30;99.90;;;;;;5029593;28;19937;-61
2022/03/10 04:23:33;;;;;;;;;;;17.40;99.90;;;;;;5028569;28;19925;-64
2022/03/10 04:26:00;;;;;;;;;;;17.30;99.90;;;;;;5035429;28;19936;-63
2022/03/10 04:28:28;;;;;;;;;;;17.30;99.90;;;;;;5038347;28;19928;-62
2022/03/10 04:30:55;;;;;;;;;;;17.20;99.90;;;;;;5032217;28;20262;-62
2022/03/10 04:33:22;;;;;;;;;;;17.30;99.90;;;;;;5043389;28;19932;-66
2022/03/10 04:35:53;;;;;;;;;;;17.20;99.90;;;;;;5039941;28;19972;-60
2022/03/10 04:38:22;;;;;;;;;;;17.20;99.90;;;;;;5043530;28;19940;-64
2022/03/10 04:40:49;;;;;;;;;;;17.30;99.90;;;;;;5042936;28;19929;-62
2022/03/10 04:43:17;;;;;;;;;;;17.20;99.90;;;;;;5041473;28;20056;-60
2022/03/10 04:45:44;;;;;;;;;;;17.20;99.90;;;;;;5039139;28;19936;-63
2022/03/10 04:48:11;;;;;;;;;;;17.20;99.90;;;;;;5070480;28;19929;-62
2022/03/10 04:50:38;;;;;;;;;;;17.20;99.90;;;;;;5037775;28;19925;-62
2022/03/10 04:53:05;;;;;;;;;;;17.30;99.90;;;;;;5046426;28;19929;-62
2022/03/10 04:55:32;;;;;;;;;;;17.20;99.90;;;;;;5041751;28;20300;-61
2022/03/10 04:58:00;;;;;;;;;;;17.30;99.90;;;;;;5030157;28;19936;-62
2022/03/10 05:00:30;;;;;;;;;;;17.50;99.90;;;;;;5036903;28;19936;-67
2022/03/10 05:02:57;;;;;;;;;;;17.70;99.90;;;;;;5048124;28;19929;-65
2022/03/10 05:05:25;;;;;;;;;;;17.70;99.90;;;;;;5042384;28;19935;-65
2022/03/10 05:07:52;;;;;;;;;;;17.90;99.90;;;;;;5046649;28;19929;-63
2022/03/10 05:10:19;;;;;;;;;;;18.00;99.90;;;;;;5037565;28;19929;-61
2022/03/10 05:12:50;;;;;;;;;;;18.10;99.90;;;;;;5043596;28;19940;-62
2022/03/10 05:15:19;;;;;;;;;;;18.20;99.90;;;;;;5036503;28;19932;-64
2022/03/10 05:17:46;;;;;;;;;;;18.30;99.90;;;;;;5040479;28;20341;-63
2022/03/10 05:20:13;;;;;;;;;;;18.40;99.90;;;;;;5034795;28;20066;-64
2022/03/10 05:22:41;;;;;;;;;;;18.50;99.90;;;;;;5056039;28;19929;-67
2022/03/10 05:25:08;;;;;;;;;;;18.70;99.90;;;;;;5057405;28;19925;-67
2022/03/10 05:27:37;;;;;;;;;;;18.90;99.90;;;;;;5048177;28;19943;-64
2022/03/10 05:30:04;;;;;;;;;;;19.00;99.90;;;;;;5056706;28;19936;-66
2022/03/10 05:32:31;;;;;;;;;;;19.20;99.90;;;;;;5053906;28;19929;-64
2022/03/10 05:35:00;;;;;;;;;;;19.40;99.90;;;;;;5040376;28;19929;-64
2022/03/10 05:37:27;;;;;;;;;;;19.50;99.90;;;;;;5047083;28;19929;-65
2022/03/10 05:39:54;;;;;;;;;;;19.70;99.90;;;;;;5044725;28;19928;-64
2022/03/10 05:42:22;;;;;;;;;;;19.90;99.90;;;;;;5043434;28;19928;-63
2022/03/10 05:44:49;;;;;;;;;;;20.10;99.80;;;;;;5040966;28;19948;-62
2022/03/10 05:47:16;;;;;;;;;;;20.30;99.90;;;;;;5037619;28;19932;-60
2022/03/10 05:49:43;;;;;;;;;;;20.40;99.90;;;;;;5040405;28;19932;-63
2022/03/10 05:52:10;;;;;;;;;;;20.50;99.90;;;;;;5047786;28;19937;-64
2022/03/10 05:54:37;;;;;;;;;;;20.60;99.90;;;;;;5048950;28;19936;-65
2022/03/10 05:57:05;;;;;;;;;;;20.60;99.90;;;;;;5038998;28;20487;-63
2022/03/10 05:59:32;;;;;;;;;;;20.50;99.70;;;;;;5046420;28;19929;-61
2022/03/10 06:01:59;;;;;;;;;;;20.60;99.40;;;;;;5030958;28;20304;-62
2022/03/10 06:04:26;;;;;;;;;;;20.50;99.10;;;;;;5030619;28;19932;-62
2022/03/10 06:06:53;;;;;;;;;;;20.40;99.30;;;;;;5050362;28;19925;-63
2022/03/10 06:09:20;;;;;;;;;;;20.20;99.30;;;;;;5039128;28;19936;-60
2022/03/10 06:11:49;;;;;;;;;;;20.10;99.60;;;;;;5038652;28;19929;-63
2022/03/10 06:14:17;;;;;;;;;;;20.10;99.90;;;;;;5046182;28;19956;-63
2022/03/10 06:16:45;;;;;;;;;;;20.10;99.90;;;;;;5048666;28;20482;-64
2022/03/10 06:19:12;;;;;;;;;;;20.10;99.90;;;;;;5041984;28;19929;-62
2022/03/10 06:21:39;;;;;;;;;;;20.20;99.90;;;;;;5041759;28;19952;-60
2022/03/10 06:24:07;;;;;;;;;;;20.20;99.50;;;;;;5044353;28;19933;-63
2022/03/10 06:26:36;;;;;;;;;;;20.30;99.10;;;;;;5042927;28;19929;-65
2022/03/10 06:29:07;;;;;;;;;;;20.30;98.90;;;;;;5039272;28;19936;-63
2022/03/10 06:31:35;;;;;;;;;;;20.40;98.40;;;;;;5039998;28;19936;-64
2022/03/10 06:34:02;;;;;;;;;;;20.50;98.30;;;;;;5044664;28;19925;-67
2022/03/10 06:36:29;;;;;;;;;;;20.60;98.00;;;;;;5045723;28;19925;-66
2022/03/10 06:38:56;;;;;;;;;;;20.60;97.60;;;;;;5043628;28;20367;-63
2022/03/10 06:41:23;;;;;;;;;;;20.60;97.30;;;;;;5032264;28;20249;-65
2022/03/10 06:43:53;;;;;;;;;;;20.60;97.00;;;;;;5040832;28;19965;-65
2022/03/10 06:46:20;;;;;;;;;;;20.60;96.70;;;;;;5041474;28;20303;-65
2022/03/10 06:48:48;;;;;;;;;;;20.60;96.50;;;;;;5041518;28;19936;-66
2022/03/10 06:51:15;;;;;;;;;;;20.60;96.30;;;;;;5037709;28;19929;-65
2022/03/10 06:53:42;;;;;;;;;;;20.70;96.10;;;;;;5039923;28;20435;-68
2022/03/10 06:56:10;;;;;;;;;;;20.70;96.20;;;;;;5057638;28;19937;-66
2022/03/10 06:58:37;;;;;;;;;;;20.70;96.00;;;;;;5055631;28;19928;-67
2022/03/10 07:01:04;;;;;;;;;;;20.60;95.80;;;;;;5058308;28;19939;-66
2022/03/10 07:03:32;;;;;;;;;;;20.60;95.30;;;;;;5056409;28;20304;-63
2022/03/10 07:05:59;;;;;;;;;;;20.60;94.80;;;;;;5051732;28;19924;-66
2022/03/10 07:08:26;;;;;;;;;;;20.60;94.70;;;;;;5044015;28;20355;-66
2022/03/10 07:10:53;;;;;;;;;;;20.60;94.50;;;;;;5035948;28;19932;-66
2022/03/10 07:13:20;;;;;;;;;;;20.50;94.50;;;;;;5040886;28;19933;-65
2022/03/10 07:15:52;;;;;;;;;;;20.50;94.70;;;;;;5043283;28;20311;-67
2022/03/10 07:18:20;;;;;;;;;;;20.50;95.00;;;;;;5046077;28;19929;-65
2022/03/10 07:20:48;;;;;;;;;;;20.40;95.40;;;;;;5030390;28;20529;-66
2022/03/10 07:23:15;;;;;;;;;;;20.40;95.20;;;;;;5060582;28;19952;-64
2022/03/10 07:25:43;;;;;;;;;;;20.30;95.00;;;;;;5042023;28;19936;-66
2022/03/10 07:28:10;;;;;;;;;;;20.30;95.40;;;;;;5040892;28;19941;-65
2022/03/10 07:30:37;;;;;;;;;;;20.20;96.00;;;;;;5043708;28;19940;-65
2022/03/10 07:33:05;;;;;;;;;;;20.20;96.60;;;;;;5024138;28;19936;-65
2022/03/10 07:35:32;;;;;;;;;;;20.20;96.80;;;;;;5040662;28;19936;-64
2022/03/10 07:37:59;;;;;;;;;;;20.10;96.80;;;;;;5044097;28;19932;-68
2022/03/10 07:40:26;;;;;;;;;;;19.90;91.60;;;;;;5043913;28;20405;-67
2022/03/10 07:42:54;;;;;;;;;;;18.60;80.10;;;;;;5043109;28;20276;-66
2022/03/10 07:45:22;;;;;;;;;;;17.90;87.90;;;;;;5043278;28;19929;-64
2022/03/10 07:47:49;;;;;;;;;;;18.40;89.80;;;;;;5044927;28;19932;-63
2022/03/10 07:50:16;;;;;;;;;;;19.10;89.60;;;;;;5039362;28;19928;-64
2022/03/10 07:52:43;;;;;;;;;;;19.60;90.30;;;;;;5043899;28;19929;-66
2022/03/10 07:55:13;;;;;;;;;;;20.00;90.90;;;;;;5048258;28;19929;-63
2022/03/10 07:57:41;;;;;;;;;;;20.20;91.40;;;;;;5044547;28;19929;-66
2022/03/10 08:00:09;;;;;;;;;;;20.50;92.30;;;;;;5046475;28;20397;-66
2022/03/10 08:02:37;;;;;;;;;;;20.70;92.60;;;;;;5041555;28;19929;-65
2022/03/10 08:05:07;;;;;;;;;;;20.90;92.80;;;;;;5033846;28;19940;-69
2022/03/10 08:07:34;;;;;;;;;;;21.00;93.10;;;;;;5044980;28;20266;-66
2022/03/10 08:10:04;;;;;;;;;;;21.00;93.40;;;;;;5043495;28;19944;-64
2022/03/10 08:12:32;;;;;;;;;;;21.10;93.80;;;;;;5035247;28;19929;-65
2022/03/10 08:14:59;;;;;;;;;;;21.20;94.00;;;;;;5042446;28;20304;-66
2022/03/10 08:17:26;;;;;;;;;;;21.30;94.30;;;;;;5029197;28;19936;-66
2022/03/10 08:19:54;;;;;;;;;;;21.20;94.70;;;;;;5042931;28;19936;-65
2022/03/10 08:22:24;;;;;;;;;;;21.20;95.10;;;;;;5043764;28;19929;-66
2022/03/10 08:24:51;;;;;;;;;;;21.30;95.20;;;;;;5041448;28;19936;-64
2022/03/10 08:27:19;;;;;;;;;;;21.40;95.40;;;;;;5045295;28;20380;-64
2022/03/10 08:29:46;;;;;;;;;;;21.40;95.60;;;;;;5040961;28;19933;-64
2022/03/10 08:32:14;;;;;;;;;;;21.40;96.00;;;;;;5049131;28;19936;-64
2022/03/10 08:34:41;;;;;;;;;;;21.40;96.10;;;;;;5044045;28;20003;-60
2022/03/10 08:37:08;;;;;;;;;;;21.40;96.30;;;;;;5044601;28;19928;-61
2022/03/10 08:39:36;;;;;;;;;;;21.40;96.40;;;;;;5050101;28;19929;-61
2022/03/10 08:42:03;;;;;;;;;;;21.30;96.40;;;;;;5050406;28;19932;-60
2022/03/10 08:44:30;;;;;;;;;;;21.30;96.50;;;;;;5048353;28;20231;-62
2022/03/10 08:46:57;;;;;;;;;;;21.30;96.70;;;;;;5044606;28;19940;-63
2022/03/10 08:49:24;;;;;;;;;;;21.20;96.80;;;;;;5041588;28;19952;-62
2022/03/10 08:51:52;;;;;;;;;;;21.10;97.10;;;;;;5046620;28;19948;-66
2022/03/10 08:54:20;;;;;;;;;;;21.10;97.30;;;;;;5041876;28;19944;-64
2022/03/10 08:56:47;;;;;;;;;;;21.10;97.60;;;;;;5044538;28;19929;-64
2022/03/10 08:59:14;;;;;;;;;;;21.10;97.70;;;;;;5034057;28;19932;-66
2022/03/10 09:01:42;;;;;;;;;;;21.00;97.60;;;;;;5049523;28;19928;-63
2022/03/10 09:04:09;;;;;;;;;;;21.00;97.70;;;;;;5039124;28;20386;-65
2022/03/10 09:06:36;;;;;;;;;;;20.90;97.70;;;;;;5047577;28;19929;-62
2022/03/10 09:09:03;;;;;;;;;;;20.90;97.90;;;;;;5036036;28;19929;-60
2022/03/10 09:11:31;;;;;;;;;;;20.90;98.00;;;;;;5049459;28;19928;-64
2022/03/10 09:13:59;;;;;;;;;;;20.80;98.70;;;;;;5044288;28;19940;-60
2022/03/10 09:16:26;;;;;;;;;;;20.80;98.60;;;;;;5046742;28;19948;-62
2022/03/10 09:18:56;;;;;;;;;;;20.70;98.70;;;;;;5064345;28;19940;-62
2022/03/10 09:21:24;;;;;;;;;;;20.60;99.10;;;;;;5045988;28;20261;-62
2022/03/10 09:23:51;;;;;;;;;;;20.60;99.10;;;;;;5041000;28;19944;-62
2022/03/10 09:26:18;;;;;;;;;;;20.60;99.30;;;;;;5042302;28;19936;-62
2022/03/10 09:28:46;;;;;;;;;;;20.50;99.50;;;;;;5045666;28;19929;-63
2022/03/10 09:31:15;;;;;;;;;;;20.50;99.60;;;;;;5040737;28;19940;-64
2022/03/10 09:33:44;;;;;;;;;;;20.50;99.80;;;;;;5050974;28;20486;-64
2022/03/10 09:36:13;;;;;;;;;;;20.50;99.80;;;;;;5075091;28;19943;-68
2022/03/10 09:38:42;;;;;;;;;;;20.40;99.90;;;;;;5055314;28;19920;-66
2022/03/10 09:41:09;;;;;;;;;;;20.40;99.70;;;;;;5065107;28;19939;-65
2022/03/10 09:43:38;;;;;;;;;;;20.50;99.70;;;;;;5041815;28;19959;-64
2022/03/10 09:46:08;;;;;;;;;;;20.60;99.70;;;;;;5033150;28;20028;-66
2022/03/10 09:48:36;;;;;;;;;;;20.70;99.60;;;;;;5041928;28;19928;-65
2022/03/10 09:51:03;;;;;;;;;;;20.80;99.50;;;;;;5048301;28;19929;-63
2022/03/10 09:53:31;;;;;;;;;;;20.90;99.40;;;;;;5049779;28;19929;-64
2022/03/10 09:55:59;;;;;;;;;;;21.00;99.20;;;;;;5046176;28;20415;-62
2022/03/10 09:58:26;;;;;;;;;;;21.10;99.10;;;;;;5049841;28;19928;-64
2022/03/10 10:01:00;;;;;;;;;;;21.20;99.00;;;;;;5044568;28;20017;-66
2022/03/10 10:03:27;;;;;;;;;;;21.40;99.30;;;;;;5049483;28;19931;-64
2022/03/10 10:05:59;;;;;;;;;;;21.50;99.30;;;;;;5046304;28;19975;-65
2022/03/10 10:08:41;;;;;;;;;;;21.50;99.60;;;;;;5047966;28;20442;-65
2022/03/10 10:11:21;;;;;;;;;;;21.60;99.70;;;;;;5057701;28;19925;-66
2022/03/10 10:13:51;;;;;;;;;;;21.60;99.90;;;;;;5037323;28;19936;-66
2022/03/10 10:16:22;;;;;;;;;;;21.60;99.90;;;;;;5046334;28;20419;-64
2022/03/10 10:18:53;;;;;;;;;;;21.50;99.90;;;;;;5045588;28;19933;-63
2022/03/10 10:21:21;;;;;;;;;;;21.50;99.90;;;;;;5043967;28;19948;-65
2022/03/10 10:23:50;;;;;;;;;;;21.50;99.90;;;;;;5040237;28;20020;-65
2022/03/10 10:26:18;;;;;;;;;;;21.50;99.90;;;;;;5041943;28;19929;-65
2022/03/10 10:28:51;;;;;;;;;;;21.50;99.90;;;;;;5041657;28;19940;-63
2022/03/10 10:31:20;;;;;;;;;;;21.40;99.90;;;;;;5038813;28;20300;-63
2022/03/10 10:33:57;;;;;;;;;;;21.40;99.90;;;;;;5042377;28;20388;-68
2022/03/10 10:36:26;;;;;;;;;;;21.40;99.90;;;;;;5044054;28;20431;-61
2022/03/10 10:38:54;;;;;;;;;;;21.10;96.50;;;;;;5036195;28;20392;-61
2022/03/10 10:41:25;;;;;;;;;;;20.00;90.60;;;;;;5046758;28;19936;-63
2022/03/10 10:43:53;;;;;;;;;;;19.30;90.40;;;;;;5041596;28;19999;-64
2022/03/10 10:46:28;;;;;;;;;;;19.40;92.50;;;;;;5044017;28;19936;-65
2022/03/10 10:48:58;;;;;;;;;;;19.70;93.20;;;;;;5038684;28;19929;-65
2022/03/10 10:51:33;;;;;;;;;;;20.10;93.90;;;;;;5043983;28;19948;-63
2022/03/10 10:54:02;;;;;;;;;;;20.30;94.30;;;;;;5043931;28;20043;-64
2022/03/10 10:56:30;;;;;;;;;;;20.50;95.00;;;;;;5042558;28;19944;-63
2022/03/10 10:58:57;;;;;;;;;;;20.50;95.40;;;;;;5036537;28;20397;-63
2022/03/10 11:01:25;;;;;;;;;;;20.60;96.20;;;;;;5043157;28;20400;-63
2022/03/10 11:03:53;;;;;;;;;;;20.80;97.40;;;;;;5029977;28;19936;-63
2022/03/10 11:06:20;;;;;;;;;;;20.90;97.30;;;;;;5038371;28;19929;-65
2022/03/10 11:08:48;;;;;;;;;;;21.00;97.90;;;;;;5046349;28;20320;-65
2022/03/10 11:11:15;;;;;;;;;;;21.10;98.70;;;;;;5046420;28;19932;-64
2022/03/10 11:13:42;;;;;;;;;;;21.20;98.90;;;;;;5039610;28;19940;-63
2022/03/10 11:16:10;;;;;;;;;;;21.20;99.00;;;;;;5044136;28;19932;-65
2022/03/10 11:18:40;;;;;;;;;;;21.20;99.10;;;;;;5046111;28;19928;-65
2022/03/10 11:21:16;;;;;;;;;;;21.30;99.30;;;;;;5041279;28;19928;-63
2022/03/10 11:24:01;;;;;;;;;;;21.30;99.50;;;;;;5035978;28;19929;-60
2022/03/10 11:26:40;;;;;;;;;;;21.30;99.70;;;;;;5037976;28;20491;-65
2022/03/10 11:29:08;;;;;;;;;;;21.20;99.90;;;;;;5042657;28;19936;-61
2022/03/10 11:31:35;;;;;;;;;;;21.20;99.90;;;;;;5038260;28;20297;-65
2022/03/10 11:34:05;;;;;;;;;;;21.20;99.90;;;;;;5043808;28;20672;-66
2022/03/10 11:36:33;;;;;;;;;;;21.20;99.90;;;;;;5044905;28;19924;-63
2022/03/10 11:39:23;;;;;;;;;;;21.20;99.90;;;;;;5044968;28;19929;-65
2022/03/10 11:41:53;;;;;;;;;;;21.10;99.90;;;;;;5038562;28;19933;-64
2022/03/10 11:44:21;;;;;;;;;;;21.10;99.90;;;;;;5044783;28;19993;-66
2022/03/10 11:46:59;;;;;;;;;;;21.10;99.90;;;;;;5023703;28;20443;-65
2022/03/10 11:49:39;;;;;;;;;;;21.10;99.90;;;;;;5039878;28;19932;-64
2022/03/10 11:52:21;;;;;;;;;;;21.00;99.90;;;;;;5045127;28;19929;-66
2022/03/10 11:55:03;;;;;;;;;;;21.00;99.90;;;;;;5046847;28;20428;-66
2022/03/10 11:57:40;;;;;;;;;;;21.00;99.90;;;;;;5042778;28;19952;-65
2022/03/10 12:00:08;;;;;;;;;;;21.00;99.90;;;;;;5044274;28;19929;-64
2022/03/10 12:02:43;;;;;;;;;;;20.90;99.90;;;;;;5048177;28;19924;-64
2022/03/10 12:05:15;;;;;;;;;;;20.90;99.90;;;;;;5049247;28;19947;-64
2022/03/10 12:07:44;;;;;;;;;;;20.90;99.90;;;;;;5038749;28;20323;-67
2022/03/10 12:10:13;;;;;;;;;;;20.90;99.90;;;;;;5040124;28;20392;-66
2022/03/10 12:12:42;;;;;;;;;;;20.90;99.90;;;;;;5047031;28;19929;-63
2022/03/10 12:15:25;;;;;;;;;;;20.90;99.90;;;;;;5045792;28;19929;-66
2022/03/10 12:17:56;;;;;;;;;;;20.90;99.90;;;;;;5042689;28;19929;-63
2022/03/10 12:20:24;;;;;;;;;;;20.90;99.90;;;;;;5044231;28;19925;-65
2022/03/10 12:23:03;;;;;;;;;;;20.90;99.90;;;;;;5048176;28;19936;-64
2022/03/10 12:25:37;;;;;;;;;;;20.80;99.90;;;;;;5052184;28;19936;-68
2022/03/10 12:28:04;;;;;;;;;;;20.80;99.90;;;;;;5050588;28;19932;-65
2022/03/10 12:30:31;;;;;;;;;;;20.80;99.90;;;;;;5050501;28;19940;-63
2022/03/10 12:32:59;;;;;;;;;;;20.90;99.90;;;;;;5047598;28;19929;-66
2022/03/10 12:35:30;;;;;;;;;;;20.90;99.90;;;;;;5045469;28;19936;-66
2022/03/10 12:37:58;;;;;;;;;;;20.90;99.90;;;;;;5038883;28;20316;-67
2022/03/10 12:40:26;;;;;;;;;;;21.00;99.90;;;;;;5044647;28;20320;-64
2022/03/10 12:43:00;;;;;;;;;;;21.10;99.90;;;;;;5047995;28;19933;-64
2022/03/10 12:45:27;;;;;;;;;;;21.20;99.90;;;;;;5034633;28;19925;-65
2022/03/10 12:48:00;;;;;;;;;;;21.30;99.90;;;;;;5043756;28;19929;-65
2022/03/10 12:50:28;;;;;;;;;;;21.40;99.90;;;;;;5044051;28;20419;-66
2022/03/10 12:52:56;;;;;;;;;;;21.50;99.90;;;;;;5044668;28;19935;-65
2022/03/10 12:55:27;;;;;;;;;;;21.50;99.90;;;;;;5046655;28;19929;-64
2022/03/10 12:57:58;;;;;;;;;;;21.60;99.90;;;;;;5047885;28;20197;-65
2022/03/10 13:00:25;;;;;;;;;;;21.60;99.90;;;;;;5057099;28;20008;-66
2022/03/10 13:02:59;;;;;;;;;;;21.70;99.90;;;;;;5047781;28;19929;-67
2022/03/10 13:05:27;;;;;;;;;;;21.80;99.90;;;;;;5048718;28;19925;-65
2022/03/10 13:08:03;;;;;;;;;;;21.80;99.90;;;;;;5047516;28;20300;-66
2022/03/10 13:10:32;;;;;;;;;;;21.80;99.90;;;;;;5042856;28;20339;-65
2022/03/10 13:13:00;;;;;;;;;;;21.70;99.90;;;;;;5044500;28;19932;-65
2022/03/10 13:15:28;;;;;;;;;;;21.70;99.90;;;;;;5047205;28;19924;-67
2022/03/10 13:17:59;;;;;;;;;;;21.70;99.90;;;;;;5039817;28;19936;-66
2022/03/10 13:20:27;;;;;;;;;;;21.70;99.90;;;;;;5043790;28;20373;-65
2022/03/10 13:22:55;;;;;;;;;;;21.60;99.90;;;;;;5043530;28;19929;-66
2022/03/10 13:25:23;;;;;;;;;;;21.60;99.90;;;;;;5039446;28;19949;-67
2022/03/10 13:27:51;;;;;;;;;;;21.40;98.80;;;;;;5039026;28;20396;-67
2022/03/10 13:30:19;;;;;;;;;;;21.30;97.90;;;;;;5036607;28;19929;-68
2022/03/10 13:32:47;;;;;;;;;;;21.20;96.90;;;;;;5051357;28;19936;-65
2022/03/10 13:35:15;;;;;;;;;;;21.20;97.00;;;;;;5055037;28;19944;-66
2022/03/10 13:37:42;;;;;;;;;;;21.20;96.90;;;;;;5063516;28;19929;-66
2022/03/10 13:40:12;;;;;;;;;;;21.20;97.00;;;;;;5041610;28;19925;-66
2022/03/10 13:42:39;;;;;;;;;;;21.30;97.50;;;;;;5040616;28;19944;-65
2022/03/10 13:45:07;;;;;;;;;;;21.30;98.00;;;;;;5049860;28;19932;-65
2022/03/10 13:47:46;;;;;;;;;;;21.30;98.30;;;;;;5041229;28;19936;-66
2022/03/10 13:50:18;;;;;;;;;;;21.40;98.60;;;;;;5039286;28;19928;-67
2022/03/10 13:52:45;;;;;;;;;;;21.30;98.80;;;;;;5034398;28;19925;-64
2022/03/10 13:55:13;;;;;;;;;;;21.40;99.00;;;;;;5030874;28;20317;-66
2022/03/10 13:57:45;;;;;;;;;;;21.40;99.20;;;;;;5037175;28;19940;-67
2022/03/10 14:00:13;;;;;;;;;;;21.30;99.30;;;;;;5031255;28;19929;-66
2022/03/10 14:02:47;;;;;;;;;;;21.40;99.40;;;;;;5032950;28;19936;-65
2022/03/10 14:05:15;;;;;;;;;;;21.30;99.50;;;;;;5037559;28;19925;-66
2022/03/10 14:07:52;;;;;;;;;;;21.30;99.70;;;;;;5040425;28;20756;-65
2022/03/10 14:10:29;;;;;;;;;;;21.20;99.90;;;;;;5046004;28;19935;-66
2022/03/10 14:13:01;;;;;;;;;;;21.10;99.90;;;;;;5039862;28;20399;-65
2022/03/10 14:15:32;;;;;;;;;;;21.00;99.90;;;;;;5035010;28;19929;-66
2022/03/10 14:18:00;;;;;;;;;;;21.00;99.90;;;;;;5040834;28;19925;-66
2022/03/10 14:20:47;;;;;;;;;;;21.00;99.90;;;;;;5038915;28;20308;-64
2022/03/10 14:23:24;;;;;;;;;;;21.10;99.90;;;;;;5046997;28;20008;-65
2022/03/10 14:25:54;;;;;;;;;;;21.10;99.90;;;;;;5039840;28;19936;-66
2022/03/10 14:28:31;;;;;;;;;;;21.20;99.90;;;;;;5069559;28;19944;-61
2022/03/10 14:31:06;;;;;;;;;;;21.40;99.90;;;;;;5043543;28;19933;-65